GWIZZ BIAR-BIRK
Flight info
| Callsign | GWIZZ |
|---|---|
| Flight time | 1h 2m |
| Altitude | 4000 |
| Route | KERIR |
| Aircraft | PA24/L-SDGRY/S |
Departure
| Time | 2026-04-22 07:30 |
|---|---|
| Airport | Akureyri International Airport (BIAR) |
Arrival
| Time | 2026-04-22 08:32 |
|---|---|
| Airport | Reykjavík Domestic Airport (BIRK) |
| Time | Latitude | Longitude | Altitude | Speed | Heading |
|---|---|---|---|---|---|
| 2026-04-22 07:23 | 65.65389 | -18.07624 | 11 ft | 0 kts | 178° |
| 2026-04-22 07:27 | 65.65381 | -18.07594 | 11 ft | 6 kts | 98° |
| 2026-04-22 07:27 | 65.65380 | -18.07571 | 11 ft | 0 kts | 88° |
| 2026-04-22 07:28 | 65.65395 | -18.07398 | 11 ft | 3 kts | 26° |
| 2026-04-22 07:28 | 65.65448 | -18.07417 | 11 ft | 12 kts | 354° |
| 2026-04-22 07:28 | 65.65478 | -18.07280 | 10 ft | 8 kts | 85° |
| 2026-04-22 07:29 | 65.65542 | -18.07192 | 11 ft | 30 kts | 356° |
| 2026-04-22 07:29 | 65.65950 | -18.07260 | 10 ft | 84 kts | 356° |
| 2026-04-22 07:29 | 65.66627 | -18.07394 | 65 ft | 108 kts | 354° |
| 2026-04-22 07:29 | 65.67403 | -18.07526 | 321 ft | 113 kts | 357° |
| 2026-04-22 07:30 | 65.67930 | -18.07576 | 575 ft | 112 kts | 357° |
| 2026-04-22 07:30 | 65.68950 | -18.07750 | 1017 ft | 109 kts | 351° |
| 2026-04-22 07:30 | 65.69412 | -18.08163 | 1287 ft | 105 kts | 332° |
| 2026-04-22 07:30 | 65.70117 | -18.09994 | 1690 ft | 111 kts | 307° |
| 2026-04-22 07:31 | 65.70325 | -18.11125 | 1936 ft | 113 kts | 287° |
| 2026-04-22 07:31 | 65.70310 | -18.13045 | 2321 ft | 111 kts | 251° |
| 2026-04-22 07:31 | 65.69853 | -18.14359 | 2745 ft | 105 kts | 211° |
| 2026-04-22 07:31 | 65.69117 | -18.14865 | 2974 ft | 115 kts | 188° |
| 2026-04-22 07:32 | 65.68275 | -18.14934 | 3147 ft | 126 kts | 182° |
| 2026-04-22 07:32 | 65.67386 | -18.14846 | 3382 ft | 130 kts | 177° |
| 2026-04-22 07:32 | 65.66482 | -18.14633 | 3609 ft | 131 kts | 177° |
| 2026-04-22 07:32 | 65.65570 | -18.14327 | 3752 ft | 136 kts | 172° |
| 2026-04-22 07:33 | 65.64624 | -18.13901 | 3950 ft | 137 kts | 170° |
| 2026-04-22 07:33 | 65.63703 | -18.13475 | 4227 ft | 133 kts | 173° |
| 2026-04-22 07:33 | 65.62786 | -18.13296 | 4431 ft | 132 kts | 182° |
| 2026-04-22 07:33 | 65.61896 | -18.13688 | 4658 ft | 130 kts | 201° |
| 2026-04-22 07:34 | 65.61111 | -18.14699 | 4899 ft | 127 kts | 217° |
| 2026-04-22 07:34 | 65.60438 | -18.16070 | 5088 ft | 126 kts | 229° |
| 2026-04-22 07:34 | 65.59891 | -18.17645 | 5339 ft | 121 kts | 236° |
| 2026-04-22 07:34 | 65.59416 | -18.19346 | 5447 ft | 127 kts | 239° |
| 2026-04-22 07:35 | 65.58959 | -18.21154 | 5559 ft | 127 kts | 242° |
| 2026-04-22 07:35 | 65.58548 | -18.23112 | 5705 ft | 133 kts | 249° |
| 2026-04-22 07:35 | 65.58169 | -18.25075 | 6034 ft | 122 kts | 244° |
| 2026-04-22 07:35 | 65.57828 | -18.26866 | 6358 ft | 113 kts | 252° |
| 2026-04-22 07:36 | 65.57531 | -18.28627 | 6617 ft | 116 kts | 249° |
| 2026-04-22 07:36 | 65.57202 | -18.30508 | 6740 ft | 126 kts | 250° |
| 2026-04-22 07:36 | 65.56859 | -18.32475 | 6858 ft | 128 kts | 250° |
| 2026-04-22 07:36 | 65.56493 | -18.34456 | 6953 ft | 130 kts | 246° |
| 2026-04-22 07:37 | 65.55960 | -18.36232 | 7050 ft | 132 kts | 235° |
| 2026-04-22 07:37 | 65.55385 | -18.37935 | 7143 ft | 129 kts | 235° |
| 2026-04-22 07:37 | 65.54816 | -18.39643 | 7245 ft | 133 kts | 234° |
| 2026-04-22 07:37 | 65.54250 | -18.41341 | 7336 ft | 131 kts | 235° |
| 2026-04-22 07:38 | 65.53666 | -18.43057 | 7435 ft | 133 kts | 234° |
| 2026-04-22 07:38 | 65.53072 | -18.44793 | 7557 ft | 138 kts | 234° |
| 2026-04-22 07:38 | 65.52460 | -18.46643 | 7662 ft | 143 kts | 234° |
| 2026-04-22 07:38 | 65.51838 | -18.48492 | 7763 ft | 141 kts | 234° |
| 2026-04-22 07:39 | 65.51217 | -18.50318 | 7861 ft | 140 kts | 234° |
| 2026-04-22 07:39 | 65.50600 | -18.52133 | 7969 ft | 140 kts | 234° |
| 2026-04-22 07:39 | 65.49981 | -18.53976 | 8074 ft | 143 kts | 234° |
| 2026-04-22 07:39 | 65.49347 | -18.55831 | 8171 ft | 143 kts | 234° |
| 2026-04-22 07:40 | 65.48717 | -18.57684 | 8257 ft | 144 kts | 233° |
| 2026-04-22 07:40 | 65.48056 | -18.59640 | 8167 ft | 156 kts | 233° |
| 2026-04-22 07:40 | 65.47357 | -18.61701 | 8078 ft | 162 kts | 233° |
| 2026-04-22 07:40 | 65.46641 | -18.63802 | 7990 ft | 163 kts | 233° |
| 2026-04-22 07:41 | 65.45912 | -18.65941 | 7904 ft | 166 kts | 233° |
| 2026-04-22 07:41 | 65.45179 | -18.68091 | 7803 ft | 166 kts | 233° |
| 2026-04-22 07:41 | 65.44448 | -18.70248 | 7712 ft | 167 kts | 234° |
| 2026-04-22 07:41 | 65.43709 | -18.72403 | 7669 ft | 165 kts | 233° |
| 2026-04-22 07:42 | 65.42985 | -18.74503 | 7630 ft | 161 kts | 234° |
| 2026-04-22 07:42 | 65.42301 | -18.76497 | 7725 ft | 153 kts | 234° |
| 2026-04-22 07:42 | 65.41633 | -18.78444 | 7817 ft | 150 kts | 234° |
| 2026-04-22 07:42 | 65.40975 | -18.80353 | 7909 ft | 147 kts | 234° |
| 2026-04-22 07:43 | 65.40332 | -18.82236 | 8002 ft | 145 kts | 234° |
| 2026-04-22 07:43 | 65.39692 | -18.84102 | 8085 ft | 145 kts | 234° |
| 2026-04-22 07:43 | 65.39053 | -18.85963 | 8180 ft | 144 kts | 233° |
| 2026-04-22 07:43 | 65.38412 | -18.87823 | 8279 ft | 145 kts | 233° |
| 2026-04-22 07:44 | 65.37768 | -18.89695 | 8379 ft | 146 kts | 233° |
| 2026-04-22 07:44 | 65.37121 | -18.91574 | 8480 ft | 146 kts | 233° |
| 2026-04-22 07:44 | 65.36472 | -18.93450 | 8580 ft | 146 kts | 233° |
| 2026-04-22 07:44 | 65.35825 | -18.95324 | 8682 ft | 146 kts | 233° |
| 2026-04-22 07:45 | 65.35176 | -18.97202 | 8782 ft | 146 kts | 233° |
| 2026-04-22 07:45 | 65.34528 | -18.99076 | 8898 ft | 146 kts | 233° |
| 2026-04-22 07:45 | 65.33878 | -19.00953 | 8997 ft | 146 kts | 233° |
| 2026-04-22 07:45 | 65.33222 | -19.02844 | 9002 ft | 151 kts | 233° |
| 2026-04-22 07:46 | 65.32540 | -19.04819 | 8959 ft | 156 kts | 233° |
| 2026-04-22 07:46 | 65.31838 | -19.06844 | 8916 ft | 160 kts | 233° |
| 2026-04-22 07:46 | 65.31124 | -19.08898 | 8868 ft | 161 kts | 233° |
| 2026-04-22 07:46 | 65.30409 | -19.10954 | 8821 ft | 161 kts | 233° |
| 2026-04-22 07:47 | 65.29689 | -19.13023 | 8772 ft | 162 kts | 233° |
| 2026-04-22 07:47 | 65.28969 | -19.15090 | 8733 ft | 163 kts | 233° |
| 2026-04-22 07:47 | 65.28241 | -19.17168 | 8682 ft | 163 kts | 233° |
| 2026-04-22 07:47 | 65.27510 | -19.19235 | 8632 ft | 163 kts | 233° |
| 2026-04-22 07:48 | 65.26788 | -19.21275 | 8581 ft | 162 kts | 232° |
| 2026-04-22 07:48 | 65.26050 | -19.23363 | 8530 ft | 162 kts | 233° |
| 2026-04-22 07:48 | 65.25330 | -19.25393 | 8480 ft | 162 kts | 232° |
| 2026-04-22 07:48 | 65.24601 | -19.27451 | 8432 ft | 162 kts | 233° |
| 2026-04-22 07:49 | 65.23870 | -19.29504 | 8386 ft | 162 kts | 232° |
| 2026-04-22 07:49 | 65.23144 | -19.31539 | 8404 ft | 159 kts | 232° |
| 2026-04-22 07:49 | 65.22434 | -19.33521 | 8444 ft | 156 kts | 232° |
| 2026-04-22 07:49 | 65.21734 | -19.35475 | 8497 ft | 154 kts | 232° |
| 2026-04-22 07:50 | 65.21042 | -19.37420 | 8539 ft | 153 kts | 233° |
| 2026-04-22 07:50 | 65.20587 | -19.39667 | 8570 ft | 150 kts | 258° |
| 2026-04-22 07:50 | 65.20399 | -19.42104 | 8613 ft | 149 kts | 259° |
| 2026-04-22 07:50 | 65.19958 | -19.44364 | 8627 ft | 152 kts | 241° |
| 2026-04-22 07:51 | 65.19370 | -19.46468 | 8655 ft | 153 kts | 239° |
| 2026-04-22 07:51 | 65.18784 | -19.48546 | 8665 ft | 154 kts | 239° |
| 2026-04-22 07:51 | 65.18189 | -19.50671 | 8666 ft | 155 kts | 239° |
| 2026-04-22 07:51 | 65.17593 | -19.52803 | 8667 ft | 155 kts | 239° |
| 2026-04-22 07:52 | 65.16996 | -19.54940 | 8664 ft | 155 kts | 239° |
| 2026-04-22 07:52 | 65.16397 | -19.57078 | 8663 ft | 155 kts | 239° |
| 2026-04-22 07:52 | 65.15798 | -19.59213 | 8664 ft | 155 kts | 239° |
| 2026-04-22 07:52 | 65.15199 | -19.61349 | 8664 ft | 155 kts | 239° |
| 2026-04-22 07:53 | 65.14600 | -19.63484 | 8665 ft | 155 kts | 239° |
| 2026-04-22 07:53 | 65.14000 | -19.65617 | 8665 ft | 155 kts | 239° |
| 2026-04-22 07:53 | 65.13399 | -19.67753 | 8665 ft | 155 kts | 239° |
| 2026-04-22 07:53 | 65.12798 | -19.69887 | 8665 ft | 155 kts | 239° |
| 2026-04-22 07:54 | 65.12197 | -19.72020 | 8664 ft | 155 kts | 239° |
| 2026-04-22 07:54 | 65.11596 | -19.74149 | 8664 ft | 155 kts | 239° |
| 2026-04-22 07:54 | 65.10993 | -19.76285 | 8664 ft | 155 kts | 239° |
| 2026-04-22 07:54 | 65.10389 | -19.78422 | 8664 ft | 155 kts | 239° |
| 2026-04-22 07:55 | 65.09787 | -19.80548 | 8663 ft | 155 kts | 239° |
| 2026-04-22 07:55 | 65.09183 | -19.82682 | 8666 ft | 155 kts | 239° |
| 2026-04-22 07:55 | 65.08579 | -19.84811 | 8666 ft | 156 kts | 239° |
| 2026-04-22 07:55 | 65.07975 | -19.86941 | 8666 ft | 156 kts | 239° |
| 2026-04-22 07:56 | 65.07369 | -19.89071 | 8666 ft | 155 kts | 239° |
| 2026-04-22 07:56 | 65.06765 | -19.91196 | 8666 ft | 155 kts | 239° |
| 2026-04-22 07:56 | 65.06162 | -19.93317 | 8666 ft | 156 kts | 239° |
| 2026-04-22 07:56 | 65.05552 | -19.95457 | 8668 ft | 157 kts | 239° |
| 2026-04-22 07:57 | 65.04935 | -19.97623 | 8669 ft | 159 kts | 239° |
| 2026-04-22 07:57 | 65.04313 | -19.99804 | 8672 ft | 160 kts | 239° |
| 2026-04-22 07:57 | 65.03687 | -20.01993 | 8673 ft | 161 kts | 239° |
| 2026-04-22 07:57 | 65.03068 | -20.04159 | 8674 ft | 161 kts | 239° |
| 2026-04-22 07:58 | 65.02440 | -20.06352 | 8675 ft | 161 kts | 239° |
| 2026-04-22 07:58 | 65.01810 | -20.08550 | 8671 ft | 162 kts | 239° |
| 2026-04-22 07:58 | 65.01181 | -20.10744 | 8672 ft | 162 kts | 239° |
| 2026-04-22 07:58 | 65.00548 | -20.12948 | 8672 ft | 161 kts | 239° |
| 2026-04-22 07:59 | 64.99917 | -20.15143 | 8672 ft | 161 kts | 239° |
| 2026-04-22 07:59 | 64.99286 | -20.17339 | 8672 ft | 162 kts | 239° |
| 2026-04-22 07:59 | 64.98654 | -20.19534 | 8671 ft | 161 kts | 238° |
| 2026-04-22 07:59 | 64.98022 | -20.21727 | 8672 ft | 161 kts | 239° |
| 2026-04-22 08:00 | 64.97390 | -20.23918 | 8671 ft | 161 kts | 239° |
| 2026-04-22 08:00 | 64.96758 | -20.26105 | 8671 ft | 161 kts | 239° |
| 2026-04-22 08:00 | 64.96128 | -20.28284 | 8670 ft | 161 kts | 238° |
| 2026-04-22 08:00 | 64.95497 | -20.30466 | 8670 ft | 161 kts | 238° |
| 2026-04-22 08:01 | 64.94865 | -20.32646 | 8672 ft | 161 kts | 238° |
| 2026-04-22 08:01 | 64.94232 | -20.34832 | 8671 ft | 161 kts | 238° |
| 2026-04-22 08:01 | 64.93598 | -20.37015 | 8672 ft | 161 kts | 238° |
| 2026-04-22 08:01 | 64.92963 | -20.39202 | 8672 ft | 162 kts | 238° |
| 2026-04-22 08:02 | 64.92328 | -20.41385 | 8671 ft | 161 kts | 238° |
| 2026-04-22 08:02 | 64.91691 | -20.43571 | 8671 ft | 161 kts | 238° |
| 2026-04-22 08:02 | 64.91058 | -20.45747 | 8672 ft | 161 kts | 238° |
| 2026-04-22 08:02 | 64.90422 | -20.47930 | 8671 ft | 162 kts | 238° |
| 2026-04-22 08:03 | 64.89783 | -20.50116 | 8671 ft | 161 kts | 238° |
| 2026-04-22 08:03 | 64.89148 | -20.52288 | 8671 ft | 161 kts | 238° |
| 2026-04-22 08:03 | 64.88513 | -20.54461 | 8671 ft | 161 kts | 238° |
| 2026-04-22 08:03 | 64.87877 | -20.56634 | 8670 ft | 161 kts | 238° |
| 2026-04-22 08:04 | 64.87241 | -20.58802 | 8670 ft | 161 kts | 238° |
| 2026-04-22 08:04 | 64.86606 | -20.60970 | 8670 ft | 161 kts | 238° |
| 2026-04-22 08:04 | 64.85969 | -20.63135 | 8672 ft | 161 kts | 238° |
| 2026-04-22 08:04 | 64.85333 | -20.65302 | 8672 ft | 161 kts | 238° |
| 2026-04-22 08:05 | 64.84696 | -20.67467 | 8672 ft | 161 kts | 238° |
| 2026-04-22 08:05 | 64.84055 | -20.69644 | 8617 ft | 164 kts | 238° |
| 2026-04-22 08:05 | 64.83421 | -20.71802 | 8517 ft | 159 kts | 238° |
| 2026-04-22 08:05 | 64.82823 | -20.73826 | 8403 ft | 140 kts | 239° |
| 2026-04-22 08:06 | 64.82298 | -20.75588 | 8276 ft | 124 kts | 239° |
| 2026-04-22 08:06 | 64.81825 | -20.77178 | 8144 ft | 113 kts | 240° |
| 2026-04-22 08:06 | 64.81391 | -20.78640 | 8017 ft | 105 kts | 240° |
| 2026-04-22 08:06 | 64.80986 | -20.80007 | 7891 ft | 99 kts | 240° |
| 2026-04-22 08:07 | 64.80603 | -20.81292 | 7759 ft | 93 kts | 240° |
| 2026-04-22 08:07 | 64.80240 | -20.82513 | 7645 ft | 90 kts | 240° |
| 2026-04-22 08:07 | 64.79880 | -20.83722 | 7541 ft | 92 kts | 240° |
| 2026-04-22 08:07 | 64.79512 | -20.84968 | 7446 ft | 94 kts | 240° |
| 2026-04-22 08:08 | 64.79117 | -20.86287 | 7369 ft | 107 kts | 239° |
| 2026-04-22 08:08 | 64.78668 | -20.87838 | 7304 ft | 124 kts | 240° |
| 2026-04-22 08:08 | 64.78149 | -20.89616 | 7213 ft | 139 kts | 239° |
| 2026-04-22 08:08 | 64.77574 | -20.91542 | 7102 ft | 149 kts | 239° |
| 2026-04-22 08:09 | 64.76969 | -20.93576 | 6971 ft | 154 kts | 239° |
| 2026-04-22 08:09 | 64.76364 | -20.95610 | 6839 ft | 149 kts | 239° |
| 2026-04-22 08:09 | 64.75781 | -20.97551 | 6707 ft | 144 kts | 239° |
| 2026-04-22 08:09 | 64.75210 | -20.99463 | 6579 ft | 142 kts | 240° |
| 2026-04-22 08:10 | 64.74653 | -21.01328 | 6451 ft | 141 kts | 239° |
| 2026-04-22 08:10 | 64.74093 | -21.03198 | 6327 ft | 139 kts | 240° |
| 2026-04-22 08:10 | 64.73542 | -21.05044 | 6230 ft | 138 kts | 240° |
| 2026-04-22 08:10 | 64.72992 | -21.06878 | 6126 ft | 138 kts | 240° |
| 2026-04-22 08:11 | 64.72444 | -21.08709 | 6021 ft | 137 kts | 240° |
| 2026-04-22 08:11 | 64.71895 | -21.10539 | 5919 ft | 138 kts | 240° |
| 2026-04-22 08:11 | 64.71343 | -21.12377 | 5820 ft | 138 kts | 240° |
| 2026-04-22 08:11 | 64.70792 | -21.14215 | 5721 ft | 137 kts | 240° |
| 2026-04-22 08:12 | 64.70241 | -21.16044 | 5623 ft | 138 kts | 240° |
| 2026-04-22 08:12 | 64.69690 | -21.17878 | 5526 ft | 139 kts | 240° |
| 2026-04-22 08:12 | 64.69133 | -21.19727 | 5429 ft | 139 kts | 240° |
| 2026-04-22 08:12 | 64.68533 | -21.21519 | 5316 ft | 142 kts | 231° |
| 2026-04-22 08:13 | 64.67737 | -21.22916 | 5226 ft | 144 kts | 218° |
| 2026-04-22 08:13 | 64.66905 | -21.24158 | 5210 ft | 138 kts | 218° |
| 2026-04-22 08:13 | 64.66149 | -21.25457 | 5228 ft | 133 kts | 224° |
| 2026-04-22 08:13 | 64.65435 | -21.26803 | 5233 ft | 131 kts | 226° |
| 2026-04-22 08:14 | 64.64750 | -21.28217 | 5253 ft | 133 kts | 227° |
| 2026-04-22 08:14 | 64.64065 | -21.29700 | 5310 ft | 134 kts | 229° |
| 2026-04-22 08:14 | 64.63396 | -21.31252 | 5315 ft | 137 kts | 231° |
| 2026-04-22 08:14 | 64.62761 | -21.32907 | 5283 ft | 140 kts | 234° |
| 2026-04-22 08:15 | 64.62127 | -21.34677 | 5233 ft | 143 kts | 237° |
| 2026-04-22 08:15 | 64.61538 | -21.36554 | 5168 ft | 145 kts | 239° |
| 2026-04-22 08:15 | 64.60989 | -21.38459 | 5042 ft | 135 kts | 242° |
| 2026-04-22 08:15 | 64.60507 | -21.40277 | 4850 ft | 129 kts | 244° |
| 2026-04-22 08:16 | 64.60065 | -21.42052 | 4674 ft | 125 kts | 247° |
| 2026-04-22 08:16 | 64.59678 | -21.43798 | 4582 ft | 119 kts | 250° |
| 2026-04-22 08:16 | 64.59262 | -21.45544 | 4627 ft | 125 kts | 245° |
| 2026-04-22 08:16 | 64.58748 | -21.47193 | 4711 ft | 127 kts | 237° |
| 2026-04-22 08:17 | 64.58134 | -21.48710 | 4741 ft | 130 kts | 231° |
| 2026-04-22 08:17 | 64.57499 | -21.50154 | 4844 ft | 126 kts | 231° |
| 2026-04-22 08:17 | 64.56838 | -21.51567 | 4950 ft | 132 kts | 228° |
| 2026-04-22 08:17 | 64.56122 | -21.52982 | 5029 ft | 139 kts | 226° |
| 2026-04-22 08:18 | 64.55345 | -21.54398 | 5090 ft | 145 kts | 222° |
| 2026-04-22 08:18 | 64.54494 | -21.55753 | 5077 ft | 150 kts | 219° |
| 2026-04-22 08:18 | 64.53676 | -21.57266 | 5080 ft | 151 kts | 222° |
| 2026-04-22 08:18 | 64.53101 | -21.58190 | 5098 ft | 152 kts | 220° |
| 2026-04-22 08:19 | 64.51940 | -21.60071 | 5144 ft | 152 kts | 220° |
| 2026-04-22 08:19 | 64.51377 | -21.61042 | 5167 ft | 151 kts | 226° |
| 2026-04-22 08:19 | 64.50571 | -21.62599 | 5254 ft | 151 kts | 222° |
| 2026-04-22 08:19 | 64.49669 | -21.63908 | 5243 ft | 157 kts | 213° |
| 2026-04-22 08:20 | 64.48666 | -21.65033 | 5225 ft | 161 kts | 210° |
| 2026-04-22 08:20 | 64.47647 | -21.66095 | 5122 ft | 155 kts | 208° |
| 2026-04-22 08:20 | 64.46678 | -21.66944 | 4891 ft | 145 kts | 205° |
| 2026-04-22 08:20 | 64.45730 | -21.67700 | 4527 ft | 145 kts | 207° |
| 2026-04-22 08:21 | 64.44867 | -21.68819 | 4293 ft | 139 kts | 225° |
| 2026-04-22 08:21 | 64.44208 | -21.70440 | 3899 ft | 140 kts | 237° |
| 2026-04-22 08:21 | 64.43734 | -21.72353 | 3460 ft | 137 kts | 249° |
| 2026-04-22 08:21 | 64.43376 | -21.74410 | 3058 ft | 138 kts | 256° |
| 2026-04-22 08:22 | 64.43077 | -21.76539 | 2675 ft | 140 kts | 252° |
| 2026-04-22 08:22 | 64.42623 | -21.78527 | 2350 ft | 139 kts | 242° |
| 2026-04-22 08:22 | 64.42108 | -21.80375 | 2091 ft | 134 kts | 239° |
| 2026-04-22 08:22 | 64.41588 | -21.82127 | 1912 ft | 129 kts | 238° |
| 2026-04-22 08:23 | 64.41081 | -21.83739 | 1788 ft | 119 kts | 237° |
| 2026-04-22 08:23 | 64.40622 | -21.85246 | 1701 ft | 111 kts | 238° |
| 2026-04-22 08:23 | 64.40158 | -21.86735 | 1641 ft | 118 kts | 236° |
| 2026-04-22 08:23 | 64.39628 | -21.88191 | 1662 ft | 116 kts | 229° |
| 2026-04-22 08:24 | 64.38972 | -21.89298 | 1614 ft | 121 kts | 213° |
| 2026-04-22 08:24 | 64.38279 | -21.90376 | 1624 ft | 118 kts | 223° |
| 2026-04-22 08:24 | 64.37730 | -21.91756 | 1591 ft | 119 kts | 233° |
| 2026-04-22 08:24 | 64.37189 | -21.93220 | 1561 ft | 119 kts | 233° |
| 2026-04-22 08:25 | 64.36677 | -21.94692 | 1601 ft | 116 kts | 233° |
| 2026-04-22 08:25 | 64.36079 | -21.95916 | 1645 ft | 115 kts | 219° |
| 2026-04-22 08:25 | 64.35423 | -21.96941 | 1685 ft | 113 kts | 214° |
| 2026-04-22 08:25 | 64.34699 | -21.97746 | 1761 ft | 117 kts | 209° |
| 2026-04-22 08:26 | 64.33941 | -21.98560 | 1792 ft | 124 kts | 205° |
| 2026-04-22 08:26 | 64.33088 | -21.98934 | 1880 ft | 126 kts | 184° |
| 2026-04-22 08:26 | 64.32199 | -21.98493 | 1857 ft | 137 kts | 161° |
| 2026-04-22 08:26 | 64.31313 | -21.97695 | 1900 ft | 137 kts | 164° |
| 2026-04-22 08:27 | 64.30385 | -21.97312 | 1815 ft | 133 kts | 178° |
| 2026-04-22 08:27 | 64.29466 | -21.97076 | 1708 ft | 134 kts | 179° |
| 2026-04-22 08:27 | 64.28533 | -21.96875 | 1592 ft | 135 kts | 179° |
| 2026-04-22 08:27 | 64.27615 | -21.96684 | 1553 ft | 131 kts | 179° |
| 2026-04-22 08:28 | 64.26706 | -21.96465 | 1505 ft | 131 kts | 176° |
| 2026-04-22 08:28 | 64.25846 | -21.96222 | 1391 ft | 123 kts | 177° |
| 2026-04-22 08:28 | 64.25004 | -21.96028 | 1265 ft | 121 kts | 179° |
| 2026-04-22 08:28 | 64.24165 | -21.95891 | 1116 ft | 121 kts | 179° |
| 2026-04-22 08:29 | 64.23325 | -21.95739 | 959 ft | 120 kts | 180° |
| 2026-04-22 08:29 | 64.22505 | -21.95663 | 888 ft | 116 kts | 181° |
| 2026-04-22 08:29 | 64.21705 | -21.95604 | 844 ft | 115 kts | 180° |
| 2026-04-22 08:29 | 64.20909 | -21.95497 | 780 ft | 113 kts | 179° |
| 2026-04-22 08:30 | 64.20127 | -21.95358 | 781 ft | 112 kts | 176° |
| 2026-04-22 08:30 | 64.19349 | -21.95171 | 779 ft | 113 kts | 175° |
| 2026-04-22 08:30 | 64.18572 | -21.94918 | 766 ft | 115 kts | 172° |
| 2026-04-22 08:30 | 64.17781 | -21.94686 | 765 ft | 112 kts | 175° |
| 2026-04-22 08:31 | 64.17014 | -21.94528 | 813 ft | 109 kts | 177° |
| 2026-04-22 08:31 | 64.16278 | -21.94369 | 733 ft | 104 kts | 176° |
| 2026-04-22 08:31 | 64.14876 | -21.94117 | 386 ft | 97 kts | 175° |
| 2026-04-22 08:32 | 64.14212 | -21.94017 | 218 ft | 94 kts | 176° |
| 2026-04-22 08:32 | 64.13564 | -21.93882 | 65 ft | 93 kts | 176° |
| 2026-04-22 08:32 | 64.12985 | -21.93767 | 42 ft | 72 kts | 175° |
| 2026-04-22 08:32 | 64.12620 | -21.93706 | 32 ft | 28 kts | 176° |
| 2026-04-22 08:33 | 64.12554 | -21.93695 | 30 ft | 4 kts | 171° |
| 2026-04-22 08:33 | 64.12528 | -21.93687 | 29 ft | 4 kts | 172° |
| 2026-04-22 08:33 | 64.12482 | -21.93673 | 29 ft | 9 kts | 172° |
| 2026-04-22 08:33 | 64.12445 | -21.93537 | 25 ft | 12 kts | 88° |
| 2026-04-22 08:34 | 64.12466 | -21.93431 | 27 ft | 6 kts | 10° |
| 2026-04-22 08:34 | 64.12502 | -21.93434 | 28 ft | 6 kts | 355° |
| 2026-04-22 08:34 | 64.12549 | -21.93443 | 30 ft | 8 kts | 354° |
| 2026-04-22 08:34 | 64.12617 | -21.93458 | 32 ft | 12 kts | 356° |
| 2026-04-22 08:35 | 64.12722 | -21.93475 | 34 ft | 16 kts | 354° |
| 2026-04-22 08:35 | 64.12810 | -21.93493 | 38 ft | 11 kts | 355° |
| 2026-04-22 08:35 | 64.12874 | -21.93500 | 39 ft | 5 kts | 359° |
| 2026-04-22 08:35 | 64.12888 | -21.93493 | 40 ft | 0 kts | 32° |
| 2026-04-22 08:36 | 64.12899 | -21.93497 | 41 ft | 7 kts | 336° |
| 2026-04-22 08:37 | 64.12953 | -21.93567 | 41 ft | 10 kts | 358° |
| 2026-04-22 08:37 | 64.13020 | -21.93570 | 41 ft | 8 kts | 359° |
| 2026-04-22 08:37 | 64.13070 | -21.93547 | 42 ft | 7 kts | 18° |
| 2026-04-22 08:37 | 64.13114 | -21.93488 | 41 ft | 4 kts | 50° |
| 2026-04-22 08:38 | 64.13133 | -21.93450 | 41 ft | 3 kts | 26° |
| 2026-04-22 08:38 | 64.13148 | -21.93447 | 41 ft | 0 kts | 318° |
| 2026-04-22 08:38 | 64.13148 | -21.93466 | 41 ft | 4 kts | 241° |
| 2026-04-22 08:38 | 64.13146 | -21.93488 | 42 ft | 0 kts | 270° |
| 2026-04-22 08:56 | 64.13140 | -21.93517 | 42 ft | 0 kts | 230° |